首页
METAR-TAF:

METAR-TAF

机场 :

Estherville Municipal Airport

Estherville, 艾奥瓦州, 美国

纬度: 43-24-04N, 经度: 094-44-50W, 海拔: 401米

当前天气观测

该预报发布于46分钟前的05:52 UTC
风速7节,风向西转西南
温度 27°C
湿度 79%
气压 1004 hPa
能見度: 16.1公里
天空无云

METAR: KEST 250552Z AUTO 24007KT 10SM CLR 27/23 A2965 RMK AO2 SLP028 T02670233 10344 20267 403440211 51010

时间: 01:38 (06:38 UTC)


TAF: 丢失

超过4000个机场的气象观测和天气预报(METAR&TAF报告)。

可查询的气象台以黄色和红色小点在地图上表示。

将鼠标移到小点上方,可查看气象台名称。

然后点击查看天气观测和预报。

如需切换地图:点击带黑十字的绿色按钮放大地图;点击带横线的绿色按钮缩小地图;或者点击绿色箭头查看邻近地区的地图。


METAR-TAF: